createdAt,value
2018-03-08T00:00:58.421Z,79.00
2018-03-08T00:03:26.069Z,78.70
2018-03-08T00:05:53.729Z,78.60
2018-03-08T00:08:21.399Z,78.50
2018-03-08T00:10:49.065Z,78.30
2018-03-08T00:13:16.683Z,78.20
2018-03-08T00:15:44.409Z,78.00
2018-03-08T00:18:12.091Z,77.90
2018-03-08T00:20:40.793Z,77.90
2018-03-08T00:23:08.562Z,77.80
2018-03-08T00:25:36.212Z,77.90
2018-03-08T00:28:03.898Z,78.10
2018-03-08T00:30:31.625Z,78.10
2018-03-08T00:33:00.029Z,78.40
2018-03-08T00:35:27.661Z,78.30
2018-03-08T00:37:56.214Z,78.60
2018-03-08T00:40:23.940Z,78.60
2018-03-08T00:42:51.550Z,79.00
2018-03-08T00:45:19.172Z,79.20
2018-03-08T00:47:46.815Z,80.00
2018-03-08T00:50:14.476Z,79.30
2018-03-08T00:52:42.217Z,79.20
2018-03-08T00:55:10.700Z,78.90
2018-03-08T00:57:39.163Z,78.80
2018-03-08T01:00:06.962Z,78.80
2018-03-08T01:02:34.618Z,78.70
2018-03-08T01:05:02.320Z,78.70
2018-03-08T01:07:29.982Z,78.50
2018-03-08T01:09:57.691Z,78.40
2018-03-08T01:12:26.095Z,77.80
2018-03-08T01:14:53.944Z,77.80
2018-03-08T01:17:21.604Z,77.80
2018-03-08T01:19:50.017Z,77.80
2018-03-08T01:22:17.652Z,77.80
2018-03-08T01:24:45.351Z,77.60
2018-03-08T01:27:13.069Z,77.80
2018-03-08T01:29:40.750Z,77.80
2018-03-08T01:32:08.429Z,77.80
2018-03-08T01:34:36.090Z,78.00
2018-03-08T01:37:03.706Z,78.00
2018-03-08T01:39:32.110Z,78.10
2018-03-08T01:41:59.778Z,78.10
2018-03-08T01:44:27.402Z,78.00
2018-03-08T01:46:55.069Z,77.80
2018-03-08T01:49:23.467Z,78.00
2018-03-08T01:52:02.854Z,77.80
2018-03-08T01:54:30.597Z,78.00
2018-03-08T01:56:58.206Z,78.00
2018-03-08T01:59:26.632Z,78.20
2018-03-08T02:01:54.241Z,78.20
2018-03-08T02:04:22.643Z,77.90
2018-03-08T02:06:50.347Z,77.80
2018-03-08T02:09:18.177Z,77.90
2018-03-08T02:11:45.810Z,78.00
2018-03-08T02:14:14.192Z,78.10
2018-03-08T02:16:42.570Z,78.10
2018-03-08T02:19:10.984Z,78.20
2018-03-08T02:21:38.584Z,78.20
2018-03-08T02:24:06.226Z,78.20
2018-03-08T02:26:33.964Z,78.10
2018-03-08T02:29:01.577Z,78.30
2018-03-08T02:31:29.188Z,78.50
2018-03-08T02:33:56.801Z,78.60
2018-03-08T02:36:25.634Z,78.70
2018-03-08T02:38:53.247Z,78.60
2018-03-08T02:41:21.671Z,78.70
2018-03-08T02:43:49.299Z,78.70
2018-03-08T02:46:17.704Z,78.70
2018-03-08T02:48:45.444Z,78.70
2018-03-08T02:51:13.892Z,78.70
2018-03-08T02:53:41.542Z,78.70
2018-03-08T02:56:09.164Z,78.80
2018-03-08T02:58:37.147Z,78.90
2018-03-08T03:01:04.774Z,79.00
2018-03-08T03:03:33.288Z,79.20
2018-03-08T03:06:01.058Z,79.20
2018-03-08T03:08:28.680Z,79.20
2018-03-08T03:10:57.085Z,79.40
2018-03-08T03:13:25.022Z,79.40
2018-03-08T03:15:53.388Z,79.50
2018-03-08T03:18:20.984Z,79.40
2018-03-08T03:20:48.668Z,79.20
2018-03-08T03:23:16.390Z,79.20
2018-03-08T03:25:44.956Z,79.40
2018-03-08T03:28:12.559Z,79.20
2018-03-08T03:30:40.171Z,79.20
2018-03-08T03:33:07.840Z,79.40
2018-03-08T03:35:35.510Z,79.50
2018-03-08T03:38:03.873Z,79.60
2018-03-08T03:40:31.716Z,79.60
2018-03-08T03:42:59.369Z,79.50
2018-03-08T03:45:27.033Z,79.60
2018-03-08T03:47:55.467Z,79.90
2018-03-08T03:50:23.155Z,79.80
2018-03-08T03:52:50.925Z,79.80
2018-03-08T03:55:18.584Z,79.90
2018-03-08T03:57:46.228Z,79.80
2018-03-08T04:00:17.692Z,79.90
2018-03-08T04:02:45.337Z,79.80
2018-03-08T04:05:13.021Z,79.90
2018-03-08T04:07:40.665Z,79.90
2018-03-08T04:10:08.350Z,79.60
2018-03-08T04:12:36.136Z,79.50
2018-03-08T04:15:03.758Z,79.60
2018-03-08T04:17:31.427Z,79.60
2018-03-08T04:19:59.092Z,79.60
2018-03-08T04:22:26.754Z,79.60
2018-03-08T04:24:54.524Z,79.60
2018-03-08T04:27:22.265Z,79.30
2018-03-08T04:29:49.922Z,79.20
2018-03-08T04:32:17.518Z,79.20
2018-03-08T04:34:45.926Z,79.40
2018-03-08T04:37:13.547Z,78.60
2018-03-08T04:39:41.174Z,79.20
2018-03-08T04:42:09.630Z,79.40
2018-03-08T04:44:37.569Z,79.40
2018-03-08T04:47:05.378Z,80.30
2018-03-08T04:49:32.999Z,79.20
2018-03-08T04:52:00.674Z,79.10
2018-03-08T04:54:28.278Z,79.10
2018-03-08T04:56:55.934Z,79.40
2018-03-08T04:59:23.582Z,79.20
2018-03-08T05:01:52.078Z,79.30
2018-03-08T05:04:19.684Z,79.20
2018-03-08T05:06:47.438Z,79.30
2018-03-08T05:09:15.894Z,79.30
2018-03-08T05:11:43.582Z,79.30
2018-03-08T05:14:11.249Z,79.50
2018-03-08T05:16:38.908Z,79.60
2018-03-08T05:19:06.684Z,79.60
2018-03-08T05:21:34.289Z,79.60
2018-03-08T05:24:01.953Z,79.60
2018-03-08T05:26:29.571Z,79.50
2018-03-08T05:28:57.221Z,79.20
2018-03-08T05:31:24.836Z,80.10
2018-03-08T05:33:52.496Z,79.20
2018-03-08T05:36:20.112Z,79.40
2018-03-08T05:38:47.972Z,79.50
2018-03-08T05:41:15.674Z,79.60
2018-03-08T05:43:44.116Z,79.60
2018-03-08T05:46:11.956Z,79.60
2018-03-08T05:48:39.747Z,79.60
2018-03-08T05:51:07.382Z,79.60
2018-03-08T05:53:35.032Z,79.60
2018-03-08T05:56:02.737Z,79.70
2018-03-08T05:58:30.412Z,79.80
2018-03-08T06:00:58.086Z,79.70
2018-03-08T06:03:25.693Z,79.70
2018-03-08T06:05:53.386Z,79.60
2018-03-08T06:08:21.312Z,79.50
2018-03-08T06:10:49.124Z,79.40
2018-03-08T06:13:16.777Z,79.40
2018-03-08T06:15:44.404Z,79.30
2018-03-08T06:18:12.065Z,79.30
2018-03-08T06:20:39.707Z,79.20
2018-03-08T06:23:08.099Z,79.20
2018-03-08T06:25:35.742Z,79.20
2018-03-08T06:28:03.447Z,79.10
2018-03-08T06:30:31.133Z,79.10
2018-03-08T06:32:58.781Z,79.50
2018-03-08T06:35:26.451Z,80.00
2018-03-08T06:37:54.930Z,80.80
2018-03-08T06:40:22.667Z,80.90
2018-03-08T06:42:51.056Z,81.90
2018-03-08T06:45:18.723Z,81.90
2018-03-08T06:47:46.330Z,81.90
2018-03-08T06:50:14.010Z,82.30
2018-03-08T06:52:41.705Z,81.70
2018-03-08T06:55:09.390Z,82.30
2018-03-08T06:57:37.860Z,83.20
2018-03-08T07:00:05.552Z,82.40
2018-03-08T07:02:34.003Z,82.70
2018-03-08T07:05:01.810Z,82.50
2018-03-08T07:07:29.586Z,82.90
2018-03-08T07:09:57.304Z,82.80
2018-03-08T07:12:25.736Z,82.80
2018-03-08T07:14:53.371Z,82.80
2018-03-08T07:17:20.995Z,82.70
2018-03-08T07:19:49.415Z,83.20
2018-03-08T07:22:17.073Z,83.00
2018-03-08T07:24:44.697Z,82.40
2018-03-08T07:27:13.105Z,81.30
2018-03-08T07:29:40.739Z,81.20
2018-03-08T07:32:08.436Z,81.40
2018-03-08T07:34:36.069Z,80.40
2018-03-08T07:37:04.473Z,78.20
2018-03-08T07:39:32.122Z,78.10
2018-03-08T07:42:00.485Z,75.50
2018-03-08T07:44:28.147Z,75.50
2018-03-08T07:46:56.544Z,65.50
2018-03-08T07:49:26.996Z,60.50
2018-03-08T07:51:54.707Z,60.50
2018-03-08T07:54:22.405Z,58.00
2018-03-08T07:56:50.029Z,55.80
2018-03-08T07:59:17.853Z,54.90
2018-03-08T08:01:45.542Z,53.60
2018-03-08T08:04:25.004Z,51.90
2018-03-08T08:07:04.468Z,53.30
2018-03-08T08:09:32.255Z,53.20
2018-03-08T08:12:00.101Z,51.50
2018-03-08T08:14:27.924Z,50.00
2018-03-08T08:16:55.557Z,48.60
2018-03-08T08:19:23.223Z,48.20
2018-03-08T08:21:50.898Z,47.60
2018-03-08T08:24:18.664Z,47.50
2018-03-08T08:26:47.303Z,47.10
2018-03-08T08:29:15.032Z,46.50
2018-03-08T08:31:42.718Z,44.60
2018-03-08T08:34:11.184Z,44.50
2018-03-08T08:36:39.880Z,43.10
2018-03-08T08:39:08.353Z,42.60
2018-03-08T08:41:36.061Z,42.60
2018-03-08T08:44:03.752Z,42.50
2018-03-08T08:46:31.394Z,42.70
2018-03-08T08:48:59.852Z,42.30
2018-03-08T08:51:27.494Z,42.20
2018-03-08T08:53:55.152Z,41.00
2018-03-08T08:56:22.810Z,40.90
2018-03-08T08:58:51.254Z,39.70
2018-03-08T09:01:18.930Z,39.60
2018-03-08T09:03:47.381Z,41.40
2018-03-08T09:06:15.120Z,41.30
2018-03-08T09:08:42.816Z,40.50
2018-03-08T09:11:10.498Z,40.70
2018-03-08T09:13:39.010Z,38.60
2018-03-08T09:16:06.722Z,38.60
2018-03-08T09:18:34.349Z,39.50
2018-03-08T09:21:02.116Z,38.40
2018-03-08T09:23:29.777Z,36.60
2018-03-08T09:25:57.514Z,38.00
2018-03-08T09:28:25.188Z,37.20
2018-03-08T09:30:52.854Z,36.80
2018-03-08T09:33:20.486Z,37.30
2018-03-08T09:35:49.854Z,33.90
2018-03-08T09:38:17.547Z,33.80
2018-03-08T09:40:46.268Z,35.40
2018-03-08T09:43:15.382Z,34.80
2018-03-08T09:45:43.083Z,33.60
2018-03-08T09:48:11.505Z,32.20
2018-03-08T09:50:39.150Z,32.00
2018-03-08T09:53:06.931Z,32.10
2018-03-08T09:55:34.574Z,31.30
2018-03-08T09:58:02.337Z,31.40
2018-03-08T10:00:30.097Z,30.70
2018-03-08T10:02:58.521Z,34.70
2018-03-08T10:05:26.367Z,34.70
2018-03-08T10:07:54.130Z,34.40
2018-03-08T10:10:21.803Z,33.30
2018-03-08T10:12:49.550Z,34.60
2018-03-08T10:15:17.954Z,34.10
2018-03-08T10:17:45.715Z,34.10
2018-03-08T10:20:13.413Z,36.30
2018-03-08T10:22:41.837Z,38.50
2018-03-08T10:25:09.493Z,38.90
2018-03-08T10:27:37.120Z,40.50
2018-03-08T10:30:05.609Z,42.80
2018-03-08T10:32:34.009Z,38.90
2018-03-08T10:35:01.770Z,38.90
2018-03-08T10:37:29.410Z,37.70
2018-03-08T10:39:57.926Z,31.90
2018-03-08T10:44:54.008Z,30.10
2018-03-08T10:47:21.702Z,30.10
2018-03-08T10:49:50.099Z,30.30
2018-03-08T10:52:17.826Z,30.30
2018-03-08T10:54:45.631Z,29.30
2018-03-08T10:57:13.299Z,28.50
2018-03-08T10:59:40.941Z,28.20
2018-03-08T11:02:14.144Z,28.70
2018-03-08T11:04:41.838Z,27.20
2018-03-08T11:07:09.553Z,27.00
2018-03-08T11:09:37.182Z,27.10
2018-03-08T11:12:06.019Z,25.50
2018-03-08T11:14:34.690Z,26.80
2018-03-08T11:17:02.418Z,27.10
2018-03-08T11:19:30.075Z,27.00
2018-03-08T11:21:57.750Z,26.60
2018-03-08T11:24:25.376Z,26.30
2018-03-08T11:26:53.220Z,25.60
2018-03-08T11:29:21.116Z,23.60
2018-03-08T11:31:48.802Z,23.00
2018-03-08T11:34:16.548Z,23.10
2018-03-08T11:36:44.212Z,24.90
2018-03-08T11:39:11.852Z,27.20
2018-03-08T11:41:39.526Z,28.10
2018-03-08T11:44:07.938Z,29.80
2018-03-08T11:46:35.813Z,27.00
2018-03-08T11:49:04.265Z,25.90
2018-03-08T11:51:31.904Z,25.90
2018-03-08T11:53:59.649Z,24.50
2018-03-08T11:56:27.718Z,24.90
2018-03-08T11:58:55.585Z,23.60
2018-03-08T12:01:23.287Z,23.60
2018-03-08T12:03:50.990Z,23.10
2018-03-08T12:06:18.665Z,23.00
2018-03-08T12:08:46.279Z,23.20
2018-03-08T12:11:15.225Z,23.60
2018-03-08T12:13:43.372Z,24.40
2018-03-08T12:16:12.650Z,24.90
2018-03-08T12:18:41.054Z,23.30
2018-03-08T12:21:08.913Z,23.20
2018-03-08T12:23:37.411Z,27.80
2018-03-08T12:26:05.086Z,27.80
2018-03-08T12:28:32.798Z,28.90
2018-03-08T12:31:01.357Z,31.00
2018-03-08T12:33:29.026Z,31.60
2018-03-08T12:35:56.700Z,33.00
2018-03-08T12:38:24.421Z,34.30
2018-03-08T12:40:52.405Z,35.20
2018-03-08T12:43:20.360Z,35.70
2018-03-08T12:45:47.994Z,36.80
2018-03-08T12:48:15.654Z,37.30
2018-03-08T12:50:43.283Z,36.90
2018-03-08T12:53:12.846Z,37.30
2018-03-08T12:55:40.645Z,37.70
2018-03-08T12:58:08.299Z,36.90
2018-03-08T13:00:36.714Z,36.30
2018-03-08T13:03:05.295Z,35.90
2018-03-08T13:05:32.980Z,35.80
2018-03-08T13:08:00.677Z,35.00
2018-03-08T13:10:28.315Z,35.50
2018-03-08T13:12:55.945Z,35.60
2018-03-08T13:15:23.664Z,36.30
2018-03-08T13:17:51.304Z,36.10
2018-03-08T13:20:19.188Z,35.20
2018-03-08T13:22:49.050Z,33.20
2018-03-08T13:25:17.648Z,33.20
2018-03-08T13:27:45.500Z,33.00
2018-03-08T13:30:14.141Z,33.60
2018-03-08T13:32:41.739Z,33.50
2018-03-08T13:35:10.117Z,34.20
2018-03-08T13:37:37.826Z,34.20
2018-03-08T13:40:05.516Z,33.20
2018-03-08T13:42:33.257Z,32.80
2018-03-08T13:45:00.930Z,33.20
2018-03-08T13:47:29.889Z,33.20
2018-03-08T13:49:57.517Z,33.10
2018-03-08T13:52:25.326Z,32.80
2018-03-08T13:54:53.155Z,33.50
2018-03-08T13:57:20.798Z,34.20
2018-03-08T13:59:49.224Z,34.50
2018-03-08T14:02:16.917Z,34.40
2018-03-08T14:04:44.602Z,33.90
2018-03-08T14:07:13.011Z,33.60
2018-03-08T14:09:40.793Z,33.40
2018-03-08T14:12:08.437Z,34.00
2018-03-08T14:14:37.555Z,34.90
2018-03-08T14:17:05.217Z,35.00
2018-03-08T14:19:32.926Z,34.80
2018-03-08T14:22:01.396Z,35.60
2018-03-08T14:24:29.224Z,35.40
2018-03-08T14:26:56.981Z,35.50
2018-03-08T14:29:25.328Z,35.50
2018-03-08T14:31:52.974Z,35.50
2018-03-08T14:34:21.476Z,35.70
2018-03-08T14:36:49.111Z,35.70
2018-03-08T14:39:17.766Z,35.70
2018-03-08T14:41:46.324Z,35.60
2018-03-08T14:44:14.183Z,35.10
2018-03-08T14:46:41.923Z,34.40
2018-03-08T14:49:10.914Z,34.50
2018-03-08T14:51:39.377Z,34.70
2018-03-08T14:54:08.552Z,34.70
2018-03-08T14:56:36.282Z,34.70
2018-03-08T14:59:04.403Z,35.00
2018-03-08T15:01:32.021Z,35.40
2018-03-08T15:03:59.660Z,35.40
2018-03-08T15:06:27.364Z,35.20
2018-03-08T15:08:55.048Z,35.70
2018-03-08T15:11:23.610Z,35.00
2018-03-08T15:13:51.383Z,35.50
2018-03-08T15:16:19.075Z,35.80
2018-03-08T15:18:47.458Z,36.20
2018-03-08T15:21:15.968Z,34.40
2018-03-08T15:23:43.683Z,34.40
2018-03-08T15:26:11.475Z,31.30
2018-03-08T15:28:40.029Z,31.80
2018-03-08T15:31:07.715Z,31.70
2018-03-08T15:33:36.169Z,33.30
2018-03-08T15:36:03.887Z,33.30
2018-03-08T15:38:32.005Z,34.00
2018-03-08T15:40:59.988Z,34.80
2018-03-08T15:43:29.251Z,35.60
2018-03-08T15:45:57.021Z,34.90
2018-03-08T15:48:24.721Z,35.10
2018-03-08T15:50:53.217Z,35.20
2018-03-08T15:53:20.858Z,35.10
2018-03-08T15:55:49.399Z,35.20
2018-03-08T15:58:17.157Z,35.20
2018-03-08T16:00:44.938Z,35.70
2018-03-08T16:03:12.649Z,35.80
2018-03-08T16:05:40.315Z,36.60
2018-03-08T16:11:19.464Z,36.80
2018-03-08T16:13:47.130Z,37.10
2018-03-08T16:16:14.738Z,37.80
2018-03-08T16:18:42.506Z,38.40
2018-03-08T16:21:10.219Z,38.30
2018-03-08T16:23:37.898Z,38.50
2018-03-08T16:26:05.676Z,38.30
2018-03-08T16:28:33.429Z,38.50
2018-03-08T16:31:01.092Z,38.20
2018-03-08T16:33:28.945Z,39.70
2018-03-08T16:35:56.676Z,39.90
2018-03-08T16:38:25.182Z,39.30
2018-03-08T16:40:52.850Z,39.30
2018-03-08T16:43:20.550Z,38.90
2018-03-08T16:45:48.342Z,38.80
2018-03-08T16:48:16.824Z,39.40
2018-03-08T16:50:45.375Z,39.50
2018-03-08T16:53:13.753Z,39.90
2018-03-08T16:55:41.449Z,40.00
2018-03-08T16:58:09.847Z,40.70
2018-03-08T17:00:37.666Z,40.50
2018-03-08T17:03:05.452Z,40.90
2018-03-08T17:05:33.904Z,41.80
2018-03-08T17:08:01.530Z,41.70
2018-03-08T17:10:29.217Z,42.20
2018-03-08T17:12:57.029Z,42.60
2018-03-08T17:15:25.538Z,43.60
2018-03-08T17:17:53.136Z,43.50
2018-03-08T17:20:20.865Z,43.50
2018-03-08T17:22:48.522Z,43.90
2018-03-08T17:25:16.175Z,44.10
2018-03-08T17:27:43.838Z,44.40
2018-03-08T17:30:11.539Z,45.20
2018-03-08T17:32:39.143Z,44.90
2018-03-08T17:35:07.968Z,45.00
2018-03-08T17:37:36.000Z,45.00
2018-03-08T17:40:03.629Z,45.40
2018-03-08T17:42:31.350Z,45.80
2018-03-08T17:44:59.273Z,46.10
2018-03-08T17:47:27.189Z,46.60
2018-03-08T17:49:55.070Z,47.00
2018-03-08T17:52:22.805Z,47.20
2018-03-08T17:54:50.554Z,47.40
2018-03-08T17:57:19.228Z,47.60
2018-03-08T17:59:50.129Z,47.70
2018-03-08T18:02:17.999Z,47.60
2018-03-08T18:04:45.868Z,47.50
2018-03-08T18:07:13.609Z,48.00
2018-03-08T18:09:41.337Z,48.20
2018-03-08T18:12:09.289Z,48.60
2018-03-08T18:14:37.814Z,49.20
2018-03-08T18:17:08.200Z,49.20
2018-03-08T18:19:36.078Z,49.50
2018-03-08T18:22:03.988Z,49.90
2018-03-08T18:24:32.233Z,50.20
2018-03-08T18:26:59.890Z,50.50
2018-03-08T18:29:27.604Z,50.90
2018-03-08T18:31:55.467Z,51.10
2018-03-08T18:34:23.760Z,51.10
2018-03-08T18:36:52.468Z,50.80
2018-03-08T18:39:20.279Z,50.90
2018-03-08T18:41:49.028Z,51.00
2018-03-08T18:44:16.778Z,50.70
2018-03-08T18:46:44.540Z,50.60
2018-03-08T18:49:13.136Z,50.90
2018-03-08T18:51:40.918Z,50.90
2018-03-08T18:54:08.734Z,50.90
2018-03-08T18:56:37.684Z,51.20
2018-03-08T18:59:05.603Z,51.20
2018-03-08T19:01:34.144Z,51.80
2018-03-08T19:04:01.848Z,51.80
2018-03-08T19:06:30.697Z,52.30
2018-03-08T19:08:58.549Z,52.30
2018-03-08T19:11:26.465Z,52.20
2018-03-08T19:13:55.082Z,52.60
2018-03-08T19:16:23.098Z,52.30
2018-03-08T19:18:51.695Z,52.10
2018-03-08T19:21:19.841Z,52.10
2018-03-08T19:23:48.535Z,52.20
2018-03-08T19:26:16.820Z,52.50
2018-03-08T19:28:44.620Z,52.50
2018-03-08T19:31:13.844Z,52.60
2018-03-08T19:33:42.034Z,52.50
2018-03-08T19:36:10.374Z,52.50
2018-03-08T19:38:39.204Z,52.40
2018-03-08T19:41:07.453Z,52.40
2018-03-08T19:43:35.206Z,52.70
2018-03-08T19:46:03.497Z,52.40
2018-03-08T19:48:31.551Z,52.30
2018-03-08T19:50:59.464Z,52.30
2018-03-08T19:53:27.872Z,52.60
2018-03-08T19:55:55.965Z,53.10
2018-03-08T19:58:24.941Z,54.30
2018-03-08T20:00:53.337Z,54.30
2018-03-08T20:03:21.655Z,54.00
2018-03-08T20:05:49.483Z,54.50
2018-03-08T20:08:17.172Z,55.20
2018-03-08T20:10:45.265Z,54.60
2018-03-08T20:13:13.093Z,54.60
2018-03-08T20:15:40.952Z,54.60
2018-03-08T20:18:08.711Z,56.00
2018-03-08T20:20:36.964Z,56.10
2018-03-08T20:23:05.029Z,55.20
2018-03-08T20:25:32.880Z,55.40
2018-03-08T20:28:01.370Z,55.80
2018-03-08T20:30:29.154Z,56.50
2018-03-08T20:32:56.944Z,56.60
2018-03-08T20:35:24.864Z,56.70
2018-03-08T20:37:52.612Z,56.50
2018-03-08T20:40:20.482Z,57.20
2018-03-08T20:42:48.210Z,56.80
2018-03-08T20:45:15.889Z,57.80
2018-03-08T20:47:44.865Z,57.90
2018-03-08T20:50:12.561Z,58.40
2018-03-08T20:52:41.094Z,57.30
2018-03-08T20:55:08.790Z,57.20
2018-03-08T20:57:36.565Z,58.20
2018-03-08T21:00:05.073Z,58.90
2018-03-08T21:02:33.547Z,57.80
2018-03-08T21:05:01.690Z,57.80
2018-03-08T21:07:29.606Z,58.40
2018-03-08T21:09:58.308Z,58.30
2018-03-08T21:12:26.224Z,58.30
2018-03-08T21:14:54.741Z,59.00
2018-03-08T21:17:22.543Z,59.30
2018-03-08T21:19:50.298Z,59.40
2018-03-08T21:22:18.096Z,60.00
2018-03-08T21:24:45.852Z,60.30
2018-03-08T21:27:13.633Z,60.70
2018-03-08T21:29:41.393Z,60.80
2018-03-08T21:32:09.919Z,61.40
2018-03-08T21:34:37.695Z,61.50
2018-03-08T21:37:05.444Z,61.30
2018-03-08T21:39:34.594Z,62.40
2018-03-08T21:42:02.471Z,62.30
2018-03-08T21:44:30.214Z,62.90
2018-03-08T21:46:57.932Z,63.00
2018-03-08T21:49:25.883Z,63.10
2018-03-08T21:51:54.157Z,63.30
2018-03-08T21:54:21.997Z,63.70
2018-03-08T21:56:49.867Z,64.30
2018-03-08T21:59:17.684Z,64.10
2018-03-08T22:01:45.343Z,64.30
2018-03-08T22:04:13.973Z,64.30
2018-03-08T22:06:42.155Z,64.20
2018-03-08T22:09:09.877Z,64.30
2018-03-08T22:11:37.735Z,64.20
2018-03-08T22:14:06.021Z,64.20
2018-03-08T22:16:33.723Z,63.80
2018-03-08T22:19:01.493Z,63.20
2018-03-08T22:21:29.319Z,62.50
2018-03-08T22:23:57.035Z,61.90
2018-03-08T22:26:25.920Z,61.50
2018-03-08T22:28:53.716Z,61.30
2018-03-08T22:31:23.356Z,61.40
2018-03-08T22:33:51.878Z,61.50
2018-03-08T22:36:20.403Z,61.40
2018-03-08T22:38:48.158Z,61.40
2018-03-08T22:41:15.939Z,61.70
2018-03-08T22:43:43.920Z,62.10
2018-03-08T22:46:11.698Z,62.50
2018-03-08T22:48:39.417Z,62.60
2018-03-08T22:51:07.084Z,62.70
2018-03-08T22:53:34.834Z,63.50
2018-03-08T22:56:02.512Z,62.40
2018-03-08T22:58:30.277Z,62.30
2018-03-08T23:00:57.979Z,62.40
2018-03-08T23:03:30.140Z,62.40
2018-03-08T23:05:58.275Z,62.30
2018-03-08T23:08:26.118Z,62.30
2018-03-08T23:10:53.883Z,62.10
2018-03-08T23:13:21.814Z,61.90
2018-03-08T23:15:49.498Z,61.80
2018-03-08T23:18:18.083Z,61.90
2018-03-08T23:20:46.626Z,62.10
2018-03-08T23:23:14.308Z,61.90
2018-03-08T23:25:42.125Z,62.10
2018-03-08T23:28:10.898Z,62.60
2018-03-08T23:30:38.568Z,62.10
2018-03-08T23:33:06.209Z,62.20
2018-03-08T23:35:34.307Z,62.20
2018-03-08T23:38:02.078Z,62.30
2018-03-08T23:40:29.814Z,62.50
2018-03-08T23:42:57.444Z,62.80
2018-03-08T23:45:25.070Z,63.10
2018-03-08T23:47:52.722Z,63.80
2018-03-08T23:50:20.388Z,63.20
2018-03-08T23:52:48.194Z,63.20
2018-03-08T23:55:15.880Z,63.10
2018-03-08T23:57:43.796Z,63.30
